»·PEaware :: N8735K KVNY-KSNA

N8735K :: KVNY-KSNA

FLIGHT INFORMATION

Flight Status: Arrived
Operator: Privately registered:
United States
More flights under this callsign
Pilot: Jeff K. (12978)
Aircraft: BEECH AIRCRAFT BARON
(BE58)
More flights by this aircraft type
Origin: KVNY Van Nuys
United States
Destination: KSNA John Wayne-Orange Co
United States
More flights between these airports :: More routes between these airports
Route: +V186 BAYJY V363 POXKU V8 SLI
File this flight plan on PilotEdge
Remarks:
Altitude:
(Current/Filed)
5,000ft
Speed:
(Current/Filed)
160kts
Departed: 18-Nov-17 01:27 PM
Arrived: 18-Nov-17 02:01 PM
Distance/Time
Traveled:
45nm/0:34
Distance/Time
To Go:
Arrived

Flight Plot

Page will automatically refresh every two minutes.


Map Options




Map Legend


Flown Route
Filed Route
Departure Airport
Arrival Airport
Navaid (VOR, NDB)
Fix

Horizontal Profiles

Position Reports

Time Latitude Longitude Heading Altitude Ground
Speed
18-Nov-17 13:07 34.209668 -118.487362 145 774ft 0kts
18-Nov-17 13:08 34.209668 -118.487362 145 774ft 0kts
18-Nov-17 13:09 34.209668 -118.487362 145 774ft 0kts
18-Nov-17 13:10 34.209668 -118.487362 145 774ft 0kts
18-Nov-17 13:11 34.209668 -118.487362 145 774ft 0kts
18-Nov-17 13:12 34.209668 -118.487362 145 774ft 0kts
18-Nov-17 13:13 34.209668 -118.487362 145 774ft 0kts
18-Nov-17 13:14 34.209668 -118.487362 145 774ft 0kts
18-Nov-17 13:15 34.209668 -118.487362 145 774ft 0kts
18-Nov-17 13:16 34.209668 -118.487362 145 774ft 0kts
18-Nov-17 13:17 34.209668 -118.487362 145 774ft 0kts
18-Nov-17 13:18 34.209668 -118.487362 145 774ft 0kts
18-Nov-17 13:19 34.209668 -118.487361 145 774ft 0kts
18-Nov-17 13:20 34.209668 -118.487361 145 774ft 0kts
18-Nov-17 13:21 34.209668 -118.487361 145 774ft 0kts
18-Nov-17 13:22 34.209642 -118.487355 182 774ft 2kts
18-Nov-17 13:23 34.209973 -118.487543 348 775ft 5kts
18-Nov-17 13:24 34.210076 -118.487562 341 775ft 0kts
18-Nov-17 13:25 34.211333 -118.488456 356 778ft 18kts
18-Nov-17 13:26 34.216538 -118.489147 347 789ft 19kts
18-Nov-17 13:27 34.218577 -118.489372 233 791ft 0kts
18-Nov-17 13:28 34.218577 -118.489372 233 791ft 0kts
18-Nov-17 13:29 34.218577 -118.489372 233 791ft 0kts
18-Nov-17 13:30 34.218686 -118.489472 353 791ft 0kts
18-Nov-17 13:31 34.218910 -118.489757 274 792ft 8kts
18-Nov-17 13:32 34.199207 -118.488421 180 1071ft 126kts
18-Nov-17 13:33 34.171370 -118.472451 138 2240ft 124kts
18-Nov-17 13:34 34.156382 -118.445605 126 2824ft 138kts
18-Nov-17 13:35 34.141978 -118.418585 128 3644ft 119kts
18-Nov-17 13:36 34.139321 -118.390495 92 4518ft 111kts
18-Nov-17 13:37 34.139261 -118.360012 92 5044ft 141kts
18-Nov-17 13:38 34.139226 -118.319726 91 5011ft 173kts
18-Nov-17 13:39 34.139196 -118.277725 91 5002ft 181kts
18-Nov-17 13:40 34.139158 -118.232194 91 5023ft 184kts
18-Nov-17 13:41 34.131899 -118.185242 114 5001ft 183kts
18-Nov-17 13:42 34.116978 -118.138837 113 5000ft 182kts
18-Nov-17 13:43 34.101518 -118.089279 112 5003ft 180kts
18-Nov-17 13:44 34.087204 -118.042833 112 5003ft 178kts
18-Nov-17 13:45 34.073786 -117.999177 112 4999ft 177kts
18-Nov-17 13:46 34.060547 -117.956069 112 4997ft 177kts
18-Nov-17 13:47 34.043934 -117.915389 122 5000ft 176kts
18-Nov-17 13:48 34.032763 -117.873710 109 4999ft 177kts
18-Nov-17 13:49 34.021588 -117.832993 111 4996ft 177kts
18-Nov-17 13:50 34.009970 -117.793701 120 4989ft 162kts
18-Nov-17 13:51 33.980980 -117.782399 179 4464ft 164kts
18-Nov-17 13:52 33.949116 -117.781774 187 4000ft 158kts
18-Nov-17 13:53 33.918177 -117.783477 182 4018ft 140kts
18-Nov-17 13:54 33.890148 -117.765092 113 4002ft 142kts
18-Nov-17 13:55 33.877106 -117.720886 111 4000ft 144kts
18-Nov-17 13:56 33.855716 -117.691170 205 4003ft 127kts
18-Nov-17 13:57 33.839960 -117.719384 241 4005ft 131kts
18-Nov-17 13:58 33.827125 -117.749078 241 3941ft 137kts
18-Nov-17 13:59 33.813956 -117.779133 236 3259ft 130kts
18-Nov-17 14:00 33.796155 -117.795776 198 2540ft 111kts
18-Nov-17 14:01 33.776635 -117.804336 209 2146ft 115kts
18-Nov-17 14:02 33.756298 -117.817702 210 1754ft 116kts
18-Nov-17 14:03 33.731253 -117.833618 213 1175ft 118kts
18-Nov-17 14:04 33.705387 -117.849968 209 608ft 113kts
18-Nov-17 14:05 33.683256 -117.864069 210 141ft 95kts
18-Nov-17 14:06 33.669568 -117.871988 155 57ft 18kts
18-Nov-17 14:07 33.669228 -117.871656 137 57ft 0kts
18-Nov-17 14:08 33.668752 -117.871384 205 57ft 9kts
18-Nov-17 14:09 33.666186 -117.873399 38 57ft 13kts
18-Nov-17 14:10 33.666416 -117.872940 50 57ft 0kts

Navigation Log

Ident Type
Flight plan parsing failed, navigation log unavailable